createdAt,value
2019-02-15T00:00:01.885Z,928.54
2019-02-15T00:00:14.896Z,928.55
2019-02-15T00:00:27.920Z,928.54
2019-02-15T00:00:40.943Z,928.57
2019-02-15T00:00:53.941Z,928.54
2019-02-15T00:01:06.965Z,928.55
2019-02-15T00:01:19.972Z,928.5
2019-02-15T00:01:32.978Z,928.56
2019-02-15T00:01:45.908Z,928.58
2019-02-15T00:01:58.990Z,928.55
2019-02-15T00:02:11.992Z,928.6
2019-02-15T00:02:25.098Z,928.57
2019-02-15T00:02:38.142Z,928.54
2019-02-15T00:02:51.186Z,928.53
2019-02-15T00:03:04.205Z,928.55
2019-02-15T00:03:16.822Z,928.56
2019-02-15T00:03:29.814Z,928.58
2019-02-15T00:03:42.863Z,928.57
2019-02-15T00:03:55.811Z,928.56
2019-02-15T00:04:08.772Z,928.56
2019-02-15T00:04:21.779Z,928.54
2019-02-15T00:04:34.853Z,928.57
2019-02-15T00:04:47.846Z,928.55
2019-02-15T00:05:00.835Z,928.6
2019-02-15T00:05:13.831Z,928.58
2019-02-15T00:05:26.890Z,928.62
2019-02-15T00:05:39.894Z,928.57
2019-02-15T00:05:52.945Z,928.55
2019-02-15T00:06:05.962Z,928.56
2019-02-15T00:06:18.956Z,928.6
2019-02-15T00:06:32.119Z,928.58
2019-02-15T00:06:45.188Z,928.59
2019-02-15T00:06:58.253Z,928.59
2019-02-15T00:07:11.263Z,928.63
2019-02-15T00:07:24.302Z,928.6
2019-02-15T00:07:37.382Z,928.63
2019-02-15T00:07:50.485Z,928.65
2019-02-15T00:08:03.081Z,928.6
2019-02-15T00:08:16.091Z,928.64
2019-02-15T00:08:29.240Z,928.65
2019-02-15T00:08:42.240Z,928.63
2019-02-15T00:08:54.787Z,928.62
2019-02-15T00:09:07.814Z,928.62
2019-02-15T00:09:20.899Z,928.62
2019-02-15T00:09:33.932Z,928.61
2019-02-15T00:09:46.997Z,928.62
2019-02-15T00:09:59.969Z,928.58
2019-02-15T00:10:12.973Z,928.62
2019-02-15T00:10:25.985Z,928.66
2019-02-15T00:10:39.105Z,928.66
2019-02-15T00:10:52.106Z,928.63
2019-02-15T00:11:05.149Z,928.59
2019-02-15T00:11:18.152Z,928.6
2019-02-15T00:11:31.179Z,928.59
2019-02-15T00:11:44.280Z,928.6
2019-02-15T00:11:57.276Z,928.59
2019-02-15T00:12:10.226Z,928.6
2019-02-15T00:12:22.733Z,928.6
2019-02-15T00:12:35.769Z,928.62
2019-02-15T00:12:48.848Z,928.64
2019-02-15T00:13:01.867Z,928.6
2019-02-15T00:13:23.229Z,928.65
2019-02-15T00:13:36.263Z,928.6
2019-02-15T00:13:49.385Z,928.6
2019-02-15T00:14:02.355Z,928.65
2019-02-15T00:14:15.355Z,928.65
2019-02-15T00:14:28.294Z,928.66
2019-02-15T00:14:41.398Z,928.63
2019-02-15T00:14:54.434Z,928.67
2019-02-15T00:15:07.505Z,928.68
2019-02-15T00:15:20.529Z,928.67
2019-02-15T00:15:33.625Z,928.68
2019-02-15T00:15:46.683Z,928.7
2019-02-15T00:15:59.731Z,928.68
2019-02-15T00:16:12.776Z,928.69
2019-02-15T00:16:25.787Z,928.71
2019-02-15T00:16:38.829Z,928.7
2019-02-15T00:16:51.876Z,928.66
2019-02-15T00:17:04.947Z,928.71
2019-02-15T00:17:17.996Z,928.7
2019-02-15T00:17:31.100Z,928.75
2019-02-15T00:17:44.163Z,928.72
2019-02-15T00:17:57.121Z,928.73
2019-02-15T00:18:10.123Z,928.75
2019-02-15T00:18:23.140Z,928.69
2019-02-15T00:18:36.878Z,928.75
2019-02-15T00:18:49.942Z,928.74
2019-02-15T00:19:02.930Z,928.73
2019-02-15T00:19:16.012Z,928.75
2019-02-15T00:19:29.038Z,928.76
2019-02-15T00:19:42.066Z,928.76
2019-02-15T00:19:55.066Z,928.81
2019-02-15T00:20:08.125Z,928.77
2019-02-15T00:20:21.123Z,928.75
2019-02-15T00:20:34.119Z,928.76
2019-02-15T00:20:47.220Z,928.74
2019-02-15T00:21:00.235Z,928.78
2019-02-15T00:21:13.226Z,928.8
2019-02-15T00:21:26.250Z,928.82
2019-02-15T00:21:39.306Z,928.78
2019-02-15T00:21:52.291Z,928.82
2019-02-15T00:22:05.295Z,928.83
2019-02-15T00:22:18.320Z,928.78
2019-02-15T00:22:31.374Z,928.82
2019-02-15T00:22:44.375Z,928.78
2019-02-15T00:22:57.401Z,928.81
2019-02-15T00:23:10.458Z,928.79
2019-02-15T00:23:23.435Z,928.84
2019-02-15T00:23:37.211Z,928.78
2019-02-15T00:23:50.244Z,928.83
2019-02-15T00:24:03.228Z,928.81
2019-02-15T00:24:16.214Z,928.82
2019-02-15T00:24:29.336Z,928.79
2019-02-15T00:24:42.370Z,928.85
2019-02-15T00:24:55.381Z,928.83
2019-02-15T00:25:08.394Z,928.82
2019-02-15T00:25:21.486Z,928.83
2019-02-15T00:25:34.552Z,928.82
2019-02-15T00:25:47.589Z,928.84
2019-02-15T00:26:00.633Z,928.85
2019-02-15T00:26:13.650Z,928.85
2019-02-15T00:26:26.919Z,928.87
2019-02-15T00:26:39.924Z,928.83
2019-02-15T00:26:52.975Z,928.8
2019-02-15T00:27:06.038Z,928.85
2019-02-15T00:27:19.094Z,928.8
2019-02-15T00:27:32.111Z,928.87
2019-02-15T00:27:45.061Z,928.82
2019-02-15T00:27:58.106Z,928.82
2019-02-15T00:28:11.078Z,928.86
2019-02-15T00:28:24.061Z,928.96
2019-02-15T00:28:37.099Z,928.87
2019-02-15T00:28:50.154Z,928.87
2019-02-15T00:29:03.156Z,928.83
2019-02-15T00:29:16.172Z,928.87
2019-02-15T00:29:29.274Z,928.83
2019-02-15T00:29:42.318Z,928.85
2019-02-15T00:29:55.394Z,928.91
2019-02-15T00:30:08.386Z,928.91
2019-02-15T00:30:21.451Z,928.83
2019-02-15T00:30:34.499Z,928.82
2019-02-15T00:30:47.466Z,928.82
2019-02-15T00:31:00.516Z,928.84
2019-02-15T00:31:13.584Z,928.85
2019-02-15T00:31:26.620Z,928.86
2019-02-15T00:31:39.658Z,928.82
2019-02-15T00:31:52.704Z,928.85
2019-02-15T00:32:05.690Z,928.85
2019-02-15T00:32:18.723Z,928.85
2019-02-15T00:32:31.747Z,928.86
2019-02-15T00:32:44.776Z,928.84
2019-02-15T00:32:57.810Z,928.85
2019-02-15T00:33:10.866Z,928.87
2019-02-15T00:33:23.957Z,928.87
2019-02-15T00:33:37.036Z,928.83
2019-02-15T00:33:50.073Z,928.86
2019-02-15T00:34:03.085Z,928.85
2019-02-15T00:34:16.031Z,928.85
2019-02-15T00:34:28.987Z,928.86
2019-02-15T00:34:41.959Z,928.84
2019-02-15T00:34:54.991Z,928.87
2019-02-15T00:35:07.980Z,928.84
2019-02-15T00:35:20.963Z,928.89
2019-02-15T00:35:33.893Z,928.82
2019-02-15T00:35:46.837Z,928.83
2019-02-15T00:35:59.396Z,928.86
2019-02-15T00:36:12.386Z,928.84
2019-02-15T00:36:25.426Z,928.81
2019-02-15T00:36:38.437Z,928.82
2019-02-15T00:36:51.467Z,928.81
2019-02-15T00:37:04.486Z,928.83
2019-02-15T00:37:17.539Z,928.8
2019-02-15T00:37:30.571Z,928.85
2019-02-15T00:37:43.615Z,928.81
2019-02-15T00:37:56.632Z,928.82
2019-02-15T00:38:09.619Z,928.86
2019-02-15T00:38:22.639Z,928.79
2019-02-15T00:38:35.898Z,928.81
2019-02-15T00:38:48.864Z,928.82
2019-02-15T00:39:01.923Z,928.8
2019-02-15T00:39:14.935Z,928.82
2019-02-15T00:39:27.971Z,928.81
2019-02-15T00:39:41.079Z,928.8
2019-02-15T00:39:54.135Z,928.82
2019-02-15T00:40:07.168Z,928.77
2019-02-15T00:40:20.194Z,928.79
2019-02-15T00:40:33.215Z,928.81
2019-02-15T00:40:46.283Z,928.79
2019-02-15T00:40:59.269Z,928.78
2019-02-15T00:41:12.284Z,928.78
2019-02-15T00:41:25.269Z,928.77
2019-02-15T00:41:38.252Z,928.79
2019-02-15T00:41:51.296Z,928.78
2019-02-15T00:42:04.350Z,928.81
2019-02-15T00:42:17.340Z,928.79
2019-02-15T00:42:30.433Z,928.81
2019-02-15T00:42:43.430Z,928.78
2019-02-15T00:42:56.469Z,928.8
2019-02-15T00:43:09.535Z,928.86
2019-02-15T00:43:29.358Z,928.76
2019-02-15T00:43:42.392Z,928.83
2019-02-15T00:43:55.391Z,928.78
2019-02-15T00:44:08.390Z,928.79
2019-02-15T00:44:21.434Z,928.79
2019-02-15T00:44:34.526Z,928.78
2019-02-15T00:44:47.591Z,928.76
2019-02-15T00:45:00.664Z,928.78
2019-02-15T00:45:13.698Z,928.81
2019-02-15T00:45:26.720Z,928.75
2019-02-15T00:45:39.765Z,928.75
2019-02-15T00:45:52.779Z,928.81
2019-02-15T00:46:05.826Z,928.79
2019-02-15T00:46:18.811Z,928.74
2019-02-15T00:46:31.757Z,928.79
2019-02-15T00:46:44.815Z,928.78
2019-02-15T00:46:57.868Z,928.8
2019-02-15T00:47:10.878Z,928.79
2019-02-15T00:47:23.893Z,928.73
2019-02-15T00:47:36.905Z,928.8
2019-02-15T00:47:49.929Z,928.73
2019-02-15T00:48:02.906Z,928.76
2019-02-15T00:48:15.912Z,928.77
2019-02-15T00:48:28.916Z,928.77
2019-02-15T00:48:42.102Z,928.75
2019-02-15T00:48:55.041Z,928.78
2019-02-15T00:49:08.048Z,928.79
2019-02-15T00:49:21.040Z,928.82
2019-02-15T00:49:34.062Z,928.75
2019-02-15T00:49:47.049Z,928.73
2019-02-15T00:50:00.273Z,928.78
2019-02-15T00:50:13.290Z,928.77
2019-02-15T00:50:26.304Z,928.76
2019-02-15T00:50:39.290Z,928.72
2019-02-15T00:50:52.262Z,928.76
2019-02-15T00:51:05.221Z,928.77
2019-02-15T00:51:18.273Z,928.76
2019-02-15T00:51:31.313Z,928.74
2019-02-15T00:51:44.314Z,928.74
2019-02-15T00:51:57.344Z,928.75
2019-02-15T00:52:10.318Z,928.76
2019-02-15T00:52:23.283Z,928.7
2019-02-15T00:52:36.334Z,928.75
2019-02-15T00:52:49.309Z,928.69
2019-02-15T00:53:02.278Z,928.72
2019-02-15T00:53:15.324Z,928.73
2019-02-15T00:53:28.399Z,928.74
2019-02-15T00:53:41.395Z,928.73
2019-02-15T00:53:55.342Z,928.69
2019-02-15T00:54:08.411Z,928.71
2019-02-15T00:54:21.494Z,928.71
2019-02-15T00:54:34.475Z,928.72
2019-02-15T00:54:47.525Z,928.68
2019-02-15T00:55:00.552Z,928.69
2019-02-15T00:55:13.478Z,928.7
2019-02-15T00:55:26.594Z,928.73
2019-02-15T00:55:39.634Z,928.7
2019-02-15T00:55:52.577Z,928.71
2019-02-15T00:56:05.631Z,928.72
2019-02-15T00:56:18.588Z,928.71
2019-02-15T00:56:31.620Z,928.7
2019-02-15T00:56:44.675Z,928.69
2019-02-15T00:56:57.706Z,928.72
2019-02-15T00:57:10.272Z,928.72
2019-02-15T00:57:23.349Z,928.69
2019-02-15T00:57:36.455Z,928.7
2019-02-15T00:57:49.474Z,928.67
2019-02-15T00:58:01.979Z,928.72
2019-02-15T00:58:14.962Z,928.67
2019-02-15T00:58:27.512Z,928.66
2019-02-15T00:58:40.567Z,928.68
2019-02-15T00:58:53.603Z,928.68
2019-02-15T00:59:06.140Z,928.68
2019-02-15T00:59:19.180Z,928.68
2019-02-15T00:59:32.131Z,928.66
2019-02-15T00:59:45.181Z,928.66
2019-02-15T00:59:58.127Z,928.67
2019-02-15T01:00:11.158Z,928.66
2019-02-15T01:00:24.157Z,928.71
2019-02-15T01:00:37.198Z,928.69
2019-02-15T01:00:50.870Z,928.63
2019-02-15T01:01:03.416Z,928.66
2019-02-15T01:01:16.420Z,928.64
2019-02-15T01:01:29.469Z,928.62
2019-02-15T01:01:42.443Z,928.61
2019-02-15T01:01:55.456Z,928.61
2019-02-15T01:02:08.533Z,928.65
2019-02-15T01:02:21.645Z,928.63
2019-02-15T01:02:34.703Z,928.63
2019-02-15T01:02:47.730Z,928.59
2019-02-15T01:03:00.724Z,928.58
2019-02-15T01:03:13.718Z,928.6
2019-02-15T01:03:26.801Z,928.6
2019-02-15T01:03:39.820Z,928.6
2019-02-15T01:03:52.873Z,928.58
2019-02-15T01:04:05.890Z,928.61
2019-02-15T01:04:18.931Z,928.61
2019-02-15T01:04:31.559Z,928.62
2019-02-15T01:04:44.575Z,928.61
2019-02-15T01:04:57.642Z,928.63
2019-02-15T01:05:10.591Z,928.64
2019-02-15T01:05:23.646Z,928.57
2019-02-15T01:05:36.624Z,928.64
2019-02-15T01:05:49.662Z,928.62
2019-02-15T01:06:02.701Z,928.63
2019-02-15T01:06:15.739Z,928.68
2019-02-15T01:06:28.769Z,928.65
2019-02-15T01:06:41.759Z,928.69
2019-02-15T01:06:54.326Z,928.7
2019-02-15T01:07:07.390Z,928.7
2019-02-15T01:07:20.385Z,928.67
2019-02-15T01:07:33.408Z,928.69
2019-02-15T01:07:46.460Z,928.67
2019-02-15T01:07:59.515Z,928.73
2019-02-15T01:08:12.518Z,928.71
2019-02-15T01:08:25.561Z,928.74
2019-02-15T01:08:38.581Z,928.73
2019-02-15T01:08:51.882Z,928.71
2019-02-15T01:09:04.997Z,928.73
2019-02-15T01:09:18.080Z,928.73
2019-02-15T01:09:31.138Z,928.71
2019-02-15T01:09:44.143Z,928.74
2019-02-15T01:09:57.156Z,928.73
2019-02-15T01:10:10.208Z,928.78
2019-02-15T01:10:23.249Z,928.74
2019-02-15T01:10:36.293Z,928.74
2019-02-15T01:10:49.310Z,928.79
2019-02-15T01:11:02.396Z,928.74
2019-02-15T01:11:15.428Z,928.77
2019-02-15T01:11:28.455Z,928.76
2019-02-15T01:11:41.467Z,928.78
2019-02-15T01:11:54.557Z,928.73
2019-02-15T01:12:07.642Z,928.77
2019-02-15T01:12:20.682Z,928.74
2019-02-15T01:12:33.704Z,928.76
2019-02-15T01:12:46.754Z,928.79
2019-02-15T01:12:59.745Z,928.77
2019-02-15T01:13:12.762Z,928.75
2019-02-15T01:13:32.239Z,928.75
2019-02-15T01:13:45.227Z,928.76
2019-02-15T01:13:58.144Z,928.74
2019-02-15T01:14:11.168Z,928.77
2019-02-15T01:14:24.214Z,928.76
2019-02-15T01:14:37.214Z,928.75
2019-02-15T01:14:50.223Z,928.77
2019-02-15T01:15:03.309Z,928.77
2019-02-15T01:15:16.319Z,928.77
2019-02-15T01:15:29.335Z,928.76
2019-02-15T01:15:42.449Z,928.75
2019-02-15T01:15:55.441Z,928.73
2019-02-15T01:16:08.459Z,928.78
2019-02-15T01:16:21.502Z,928.78
2019-02-15T01:16:34.537Z,928.77
2019-02-15T01:16:47.539Z,928.78
2019-02-15T01:17:00.500Z,928.77
2019-02-15T01:17:13.477Z,928.78
2019-02-15T01:17:26.478Z,928.77
2019-02-15T01:17:39.444Z,928.79
2019-02-15T01:17:52.473Z,928.79
2019-02-15T01:18:05.457Z,928.83
2019-02-15T01:18:18.449Z,928.8
2019-02-15T01:18:31.467Z,928.83
2019-02-15T01:18:44.507Z,928.83
2019-02-15T01:18:57.737Z,928.81
2019-02-15T01:19:10.833Z,928.77
2019-02-15T01:19:23.846Z,928.86
2019-02-15T01:19:36.891Z,928.85
2019-02-15T01:19:49.958Z,928.83
2019-02-15T01:20:03.087Z,928.83
2019-02-15T01:20:15.683Z,928.83
2019-02-15T01:20:28.746Z,928.85
2019-02-15T01:20:41.734Z,928.81
2019-02-15T01:20:54.746Z,928.82
2019-02-15T01:21:07.805Z,928.83
2019-02-15T01:21:20.893Z,928.81
2019-02-15T01:21:33.952Z,928.79
2019-02-15T01:21:47.010Z,928.76
2019-02-15T01:22:00.088Z,928.8
2019-02-15T01:22:13.110Z,928.85
2019-02-15T01:22:26.134Z,928.79
2019-02-15T01:22:39.132Z,928.76
2019-02-15T01:22:52.229Z,928.76
2019-02-15T01:23:05.261Z,928.72
2019-02-15T01:23:18.295Z,928.72
2019-02-15T01:23:31.332Z,928.74
2019-02-15T01:23:43.872Z,928.73
2019-02-15T01:23:57.577Z,928.78
2019-02-15T01:24:10.585Z,928.79
2019-02-15T01:24:23.550Z,928.75
2019-02-15T01:24:36.576Z,928.76
2019-02-15T01:24:49.666Z,928.73
2019-02-15T01:25:02.644Z,928.71
2019-02-15T01:25:15.688Z,928.71
2019-02-15T01:25:28.630Z,928.7
2019-02-15T01:25:41.649Z,928.73
2019-02-15T01:25:54.728Z,928.72
2019-02-15T01:26:07.785Z,928.74
2019-02-15T01:26:20.803Z,928.74
2019-02-15T01:26:33.880Z,928.72
2019-02-15T01:26:46.950Z,928.67
2019-02-15T01:26:59.953Z,928.71
2019-02-15T01:27:12.512Z,928.69
2019-02-15T01:27:25.472Z,928.68
2019-02-15T01:27:38.512Z,928.7
2019-02-15T01:27:51.606Z,928.71
2019-02-15T01:28:04.646Z,928.7
2019-02-15T01:28:17.610Z,928.72
2019-02-15T01:28:30.640Z,928.73
2019-02-15T01:28:43.601Z,928.69
2019-02-15T01:28:56.619Z,928.72
2019-02-15T01:29:09.587Z,928.69
2019-02-15T01:29:22.594Z,928.67
2019-02-15T01:29:35.578Z,928.68
2019-02-15T01:29:48.638Z,928.68
2019-02-15T01:30:01.579Z,928.66
2019-02-15T01:30:14.669Z,928.71
2019-02-15T01:30:27.308Z,928.71
2019-02-15T01:30:40.333Z,928.65
2019-02-15T01:30:53.424Z,928.66
2019-02-15T01:31:06.442Z,928.67
2019-02-15T01:31:19.404Z,928.67
2019-02-15T01:31:32.404Z,928.67
2019-02-15T01:31:45.436Z,928.67
2019-02-15T01:31:58.447Z,928.7
2019-02-15T01:32:11.486Z,928.67
2019-02-15T01:32:24.496Z,928.67
2019-02-15T01:32:37.521Z,928.67
2019-02-15T01:32:50.527Z,928.64
2019-02-15T01:33:03.495Z,928.67
2019-02-15T01:33:16.588Z,928.63
2019-02-15T01:33:29.584Z,928.63
2019-02-15T01:33:42.576Z,928.63
2019-02-15T01:33:55.641Z,928.63
2019-02-15T01:34:08.662Z,928.65
2019-02-15T01:34:21.140Z,928.64
2019-02-15T01:34:34.184Z,928.64
2019-02-15T01:34:47.210Z,928.65
2019-02-15T01:35:00.305Z,928.65
2019-02-15T01:35:13.279Z,928.59
2019-02-15T01:35:26.235Z,928.62
2019-02-15T01:35:39.240Z,928.64
2019-02-15T01:35:52.234Z,928.63
2019-02-15T01:36:05.234Z,928.58
2019-02-15T01:36:18.192Z,928.62
2019-02-15T01:36:31.205Z,928.62
2019-02-15T01:36:44.245Z,928.61
2019-02-15T01:36:57.301Z,928.6
2019-02-15T01:37:10.383Z,928.61
2019-02-15T01:37:23.437Z,928.62
2019-02-15T01:37:36.474Z,928.59
2019-02-15T01:37:49.560Z,928.6
2019-02-15T01:38:02.604Z,928.62
2019-02-15T01:38:15.711Z,928.6
2019-02-15T01:38:28.758Z,928.62
2019-02-15T01:38:41.800Z,928.61
2019-02-15T01:38:54.739Z,928.62
2019-02-15T01:39:07.916Z,928.64
2019-02-15T01:39:20.937Z,928.62
2019-02-15T01:39:33.911Z,928.61
2019-02-15T01:39:46.909Z,928.62
2019-02-15T01:39:59.951Z,928.56
2019-02-15T01:40:12.949Z,928.67
2019-02-15T01:40:26.030Z,928.6
2019-02-15T01:40:39.026Z,928.62
2019-02-15T01:40:52.084Z,928.6
2019-02-15T01:41:05.141Z,928.58
2019-02-15T01:41:18.192Z,928.57
2019-02-15T01:41:31.262Z,928.58
2019-02-15T01:41:44.206Z,928.59
2019-02-15T01:41:57.190Z,928.59
2019-02-15T01:42:10.257Z,928.59
2019-02-15T01:42:22.827Z,928.55
2019-02-15T01:42:35.917Z,928.57
2019-02-15T01:42:48.962Z,928.56
2019-02-15T01:43:01.987Z,928.56
2019-02-15T01:43:15.040Z,928.54
2019-02-15T01:43:28.010Z,928.55
2019-02-15T01:43:49.834Z,928.55
2019-02-15T01:44:02.830Z,928.54
2019-02-15T01:44:15.866Z,928.53
2019-02-15T01:44:28.911Z,928.57
2019-02-15T01:44:41.924Z,928.57
2019-02-15T01:44:54.887Z,928.56
2019-02-15T01:45:07.903Z,928.53
2019-02-15T01:45:20.941Z,928.53
2019-02-15T01:45:33.893Z,928.55
2019-02-15T01:45:46.835Z,928.51
2019-02-15T01:45:59.899Z,928.48
2019-02-15T01:46:12.943Z,928.48
2019-02-15T01:46:25.957Z,928.5
2019-02-15T01:46:38.925Z,928.47
2019-02-15T01:46:51.900Z,928.5
2019-02-15T01:47:05.042Z,928.5
2019-02-15T01:47:18.061Z,928.51
2019-02-15T01:47:31.097Z,928.47
2019-02-15T01:47:44.293Z,928.49
2019-02-15T01:47:57.380Z,928.47
2019-02-15T01:48:10.423Z,928.49
2019-02-15T01:48:23.383Z,928.48
2019-02-15T01:48:36.445Z,928.47
2019-02-15T01:48:49.416Z,928.47
2019-02-15T01:49:02.689Z,928.47
2019-02-15T01:49:15.735Z,928.48
2019-02-15T01:49:28.763Z,928.5
2019-02-15T01:49:41.811Z,928.47
2019-02-15T01:49:54.845Z,928.45
2019-02-15T01:50:07.832Z,928.43
2019-02-15T01:50:20.818Z,928.45
2019-02-15T01:50:33.984Z,928.49
2019-02-15T01:50:47.026Z,928.49
2019-02-15T01:51:00.038Z,928.46
2019-02-15T01:51:13.039Z,928.45
2019-02-15T01:51:26.046Z,928.45
2019-02-15T01:51:39.067Z,928.41
2019-02-15T01:51:52.103Z,928.44
2019-02-15T01:52:05.095Z,928.47
2019-02-15T01:52:18.172Z,928.44
2019-02-15T01:52:31.226Z,928.44
2019-02-15T01:52:44.226Z,928.44
2019-02-15T01:52:57.217Z,928.45
2019-02-15T01:53:10.179Z,928.43
2019-02-15T01:53:23.209Z,928.47
2019-02-15T01:53:36.296Z,928.46
2019-02-15T01:53:49.393Z,928.43
2019-02-15T01:54:01.963Z,928.46
2019-02-15T01:54:15.826Z,928.44
2019-02-15T01:54:28.841Z,928.42
2019-02-15T01:54:41.810Z,928.43
2019-02-15T01:54:54.869Z,928.46
2019-02-15T01:55:07.963Z,928.42
2019-02-15T01:55:20.943Z,928.45
2019-02-15T01:55:33.945Z,928.47
2019-02-15T01:55:46.995Z,928.44
2019-02-15T01:55:59.954Z,928.41
2019-02-15T01:56:13.018Z,928.45
2019-02-15T01:56:26.028Z,928.45
2019-02-15T01:56:39.070Z,928.47
2019-02-15T01:56:52.103Z,928.48
2019-02-15T01:57:05.224Z,928.47
2019-02-15T01:57:18.253Z,928.46
2019-02-15T01:57:31.211Z,928.44
2019-02-15T01:57:44.220Z,928.43
2019-02-15T01:57:57.248Z,928.42
2019-02-15T01:58:10.309Z,928.44
2019-02-15T01:58:23.299Z,928.43
2019-02-15T01:58:36.360Z,928.43
2019-02-15T01:58:49.410Z,928.38
2019-02-15T01:59:02.412Z,928.42
2019-02-15T01:59:15.428Z,928.45
2019-02-15T01:59:28.502Z,928.44
2019-02-15T01:59:41.483Z,928.41
2019-02-15T01:59:54.481Z,928.43
2019-02-15T02:00:07.479Z,928.42
2019-02-15T02:00:20.650Z,928.39
2019-02-15T02:00:33.689Z,928.41
2019-02-15T02:00:46.806Z,928.4
2019-02-15T02:00:59.789Z,928.43
2019-02-15T02:01:12.857Z,928.39
2019-02-15T02:01:25.966Z,928.38
2019-02-15T02:01:38.985Z,928.39
2019-02-15T02:01:52.061Z,928.37
2019-02-15T02:02:05.108Z,928.32
2019-02-15T02:02:18.105Z,928.37
2019-02-15T02:02:31.062Z,928.38
2019-02-15T02:02:43.622Z,928.36
2019-02-15T02:02:56.701Z,928.36
2019-02-15T02:03:09.807Z,928.35
2019-02-15T02:03:22.713Z,928.32
2019-02-15T02:03:35.749Z,928.35
2019-02-15T02:03:48.773Z,928.34
2019-02-15T02:04:01.782Z,928.37
2019-02-15T02:04:14.840Z,928.32
2019-02-15T02:04:27.851Z,928.31
2019-02-15T02:04:40.886Z,928.33
2019-02-15T02:04:53.913Z,928.28
2019-02-15T02:05:06.984Z,928.28
2019-02-15T02:05:20.042Z,928.29
2019-02-15T02:05:33.059Z,928.28
2019-02-15T02:05:46.108Z,928.24
2019-02-15T02:05:59.074Z,928.25
2019-02-15T02:06:12.140Z,928.28
2019-02-15T02:06:25.131Z,928.21
2019-02-15T02:06:38.107Z,928.18
2019-02-15T02:06:51.134Z,928.23
2019-02-15T02:07:04.095Z,928.18
2019-02-15T02:07:17.134Z,928.18
2019-02-15T02:07:30.247Z,928.19
2019-02-15T02:07:43.217Z,928.19
2019-02-15T02:07:56.288Z,928.21
2019-02-15T02:08:09.337Z,928.14
2019-02-15T02:08:22.322Z,928.13
2019-02-15T02:08:35.370Z,928.13
2019-02-15T02:08:47.489Z,928.12
2019-02-15T02:09:00.000Z,928.15
2019-02-15T02:09:13.919Z,928.13
2019-02-15T02:09:26.991Z,928.15
2019-02-15T02:09:40.026Z,928.15
2019-02-15T02:09:53.069Z,928.17
2019-02-15T02:10:06.120Z,928.16
2019-02-15T02:10:19.058Z,928.16
2019-02-15T02:10:32.113Z,928.16
2019-02-15T02:10:45.128Z,928.15
2019-02-15T02:10:58.140Z,928.12
2019-02-15T02:11:11.082Z,928.15
2019-02-15T02:11:24.127Z,928.16
2019-02-15T02:11:37.143Z,928.15
2019-02-15T02:11:50.226Z,928.1
2019-02-15T02:12:03.240Z,928.13
2019-02-15T02:12:16.270Z,928.15
2019-02-15T02:12:29.278Z,928.12
2019-02-15T02:12:42.290Z,928.14
2019-02-15T02:12:55.338Z,928.17
2019-02-15T02:13:08.453Z,928.2
2019-02-15T02:13:21.415Z,928.13
2019-02-15T02:13:34.454Z,928.15
2019-02-15T02:13:56.294Z,928.13
2019-02-15T02:14:08.921Z,928.15
2019-02-15T02:14:21.957Z,928.14
2019-02-15T02:14:34.983Z,928.13
2019-02-15T02:14:48.075Z,928.13
2019-02-15T02:15:01.100Z,928.11
2019-02-15T02:15:14.109Z,928.12
2019-02-15T02:15:27.135Z,928.15
2019-02-15T02:15:40.178Z,928.15
2019-02-15T02:15:53.231Z,928.15
2019-02-15T02:16:05.821Z,928.14
2019-02-15T02:16:18.848Z,928.14
2019-02-15T02:16:31.870Z,928.14
2019-02-15T02:16:44.949Z,928.15
2019-02-15T02:16:57.895Z,928.18
2019-02-15T02:17:10.922Z,928.13
2019-02-15T02:17:23.946Z,928.13
2019-02-15T02:17:36.916Z,928.17
2019-02-15T02:17:50.009Z,928.16
2019-02-15T02:18:03.087Z,928.12
2019-02-15T02:18:16.135Z,928.11
2019-02-15T02:18:29.216Z,928.12
2019-02-15T02:18:42.234Z,928.14
2019-02-15T02:18:55.323Z,928.17
2019-02-15T02:19:08.278Z,928.13
2019-02-15T02:19:21.476Z,928.17
2019-02-15T02:19:34.487Z,928.15
2019-02-15T02:19:47.534Z,928.19
2019-02-15T02:20:00.492Z,928.21
2019-02-15T02:20:13.496Z,928.16
2019-02-15T02:20:26.515Z,928.16
2019-02-15T02:20:39.519Z,928.14
2019-02-15T02:20:52.518Z,928.15
2019-02-15T02:21:05.473Z,928.14
2019-02-15T02:21:18.518Z,928.2
2019-02-15T02:21:31.516Z,928.14
2019-02-15T02:21:44.479Z,928.14
2019-02-15T02:21:57.529Z,928.17
2019-02-15T02:22:10.633Z,928.19
2019-02-15T02:22:23.645Z,928.19
2019-02-15T02:22:36.191Z,928.19
2019-02-15T02:22:49.300Z,928.16
2019-02-15T02:23:02.984Z,928.16
2019-02-15T02:23:16.073Z,928.19
2019-02-15T02:23:29.032Z,928.16
2019-02-15T02:23:41.971Z,928.15
2019-02-15T02:23:55.084Z,928.07
2019-02-15T02:24:08.216Z,928.14
2019-02-15T02:24:21.789Z,928.13
2019-02-15T02:24:34.762Z,928.11
2019-02-15T02:24:47.852Z,928.1
2019-02-15T02:25:00.863Z,928.13
2019-02-15T02:25:13.901Z,928.12
2019-02-15T02:25:26.861Z,928.1
2019-02-15T02:25:39.889Z,928.08
2019-02-15T02:25:52.877Z,928.08
2019-02-15T02:26:05.924Z,928.09
2019-02-15T02:26:18.545Z,928.08
2019-02-15T02:26:31.578Z,928.06
2019-02-15T02:26:44.624Z,928.04
2019-02-15T02:26:57.670Z,928.08
2019-02-15T02:27:10.733Z,928.05
2019-02-15T02:27:23.310Z,928.09
2019-02-15T02:27:36.280Z,928.03
2019-02-15T02:27:49.270Z,928.05
2019-02-15T02:28:02.308Z,928.07
2019-02-15T02:28:15.341Z,928.04
2019-02-15T02:28:28.433Z,928.02
2019-02-15T02:28:41.387Z,928.05
2019-02-15T02:28:54.395Z,928.05
2019-02-15T02:29:07.389Z,928.04
2019-02-15T02:29:20.388Z,928.07
2019-02-15T02:29:33.444Z,928.06
2019-02-15T02:29:46.511Z,928.06
2019-02-15T02:29:59.498Z,928.01
2019-02-15T02:30:12.172Z,928.03
2019-02-15T02:30:25.259Z,928.05
2019-02-15T02:30:38.336Z,928.04
2019-02-15T02:30:51.455Z,928.04
2019-02-15T02:31:04.514Z,928.03
2019-02-15T02:31:17.441Z,928.02
2019-02-15T02:31:30.490Z,927.99
2019-02-15T02:31:43.539Z,928.03
2019-02-15T02:31:56.576Z,928
2019-02-15T02:32:09.623Z,928.04
2019-02-15T02:32:22.678Z,928.01
2019-02-15T02:32:35.654Z,928.07
2019-02-15T02:32:48.221Z,928.04
2019-02-15T02:33:01.282Z,928.02
2019-02-15T02:33:14.316Z,928.05
2019-02-15T02:33:27.340Z,928.04
2019-02-15T02:33:40.324Z,928.02
2019-02-15T02:33:53.325Z,928.03
2019-02-15T02:34:06.346Z,928.02
2019-02-15T02:34:19.443Z,928
2019-02-15T02:34:32.532Z,928.04
2019-02-15T02:34:45.548Z,928
2019-02-15T02:34:58.568Z,928.03
2019-02-15T02:35:11.154Z,928.01
2019-02-15T02:35:24.267Z,927.96
2019-02-15T02:35:37.396Z,927.99
2019-02-15T02:35:50.370Z,928.02
2019-02-15T02:36:03.434Z,927.99
2019-02-15T02:36:16.497Z,927.98
2019-02-15T02:36:29.572Z,928.02
2019-02-15T02:36:42.579Z,927.99
2019-02-15T02:36:55.590Z,927.97
2019-02-15T02:37:08.663Z,928
2019-02-15T02:37:21.644Z,927.95
2019-02-15T02:37:34.664Z,927.96
2019-02-15T02:37:47.735Z,927.97
2019-02-15T02:38:00.756Z,927.94
2019-02-15T02:38:13.752Z,927.98
2019-02-15T02:38:26.750Z,927.95
2019-02-15T02:38:39.792Z,927.96
2019-02-15T02:38:52.839Z,927.95
2019-02-15T02:39:05.927Z,927.97
2019-02-15T02:39:18.898Z,927.96
2019-02-15T02:39:33.113Z,927.96
2019-02-15T02:39:46.157Z,927.97
2019-02-15T02:39:59.282Z,927.95
2019-02-15T02:40:12.323Z,927.94
2019-02-15T02:40:25.334Z,927.94
2019-02-15T02:40:38.389Z,927.96
2019-02-15T02:40:51.391Z,927.96
2019-02-15T02:41:04.399Z,927.95
2019-02-15T02:41:17.485Z,927.91
2019-02-15T02:41:30.485Z,927.97
2019-02-15T02:41:43.518Z,927.96
2019-02-15T02:41:56.604Z,927.93
2019-02-15T02:42:09.634Z,927.94
2019-02-15T02:42:22.755Z,927.94
2019-02-15T02:42:35.859Z,927.9
2019-02-15T02:42:48.904Z,927.95
2019-02-15T02:43:01.949Z,927.9
2019-02-15T02:43:15.004Z,927.89
2019-02-15T02:43:27.985Z,927.91